createdAt,value
2023-05-05T11:05:24.811Z,4.18
2023-05-05T11:07:55.034Z,4.00
2023-05-05T11:10:23.863Z,4.32
2023-05-05T11:13:23.110Z,4.10
2023-05-05T11:15:55.496Z,4.35
2023-05-05T11:18:45.079Z,4.00
2023-05-05T11:21:19.077Z,4.55
2023-05-05T11:23:52.723Z,4.30
2023-05-05T11:26:52.230Z,4.25
2023-05-05T11:29:21.002Z,4.45
2023-05-05T11:32:16.266Z,4.13
2023-05-05T11:34:51.666Z,4.20
2023-05-05T11:37:24.782Z,3.92
2023-05-05T11:40:08.961Z,4.10
2023-05-05T11:42:40.611Z,4.40
2023-05-05T11:45:25.142Z,4.70
2023-05-05T11:47:53.641Z,4.60
2023-05-05T11:50:27.311Z,4.00
2023-05-05T11:52:58.523Z,4.32
2023-05-05T11:55:34.423Z,3.90
2023-05-05T11:58:19.941Z,4.20
2023-05-05T12:00:51.576Z,3.72
2023-05-05T12:03:20.146Z,3.45
2023-05-05T12:05:49.016Z,3.53
2023-05-05T12:08:21.190Z,3.95
2023-05-05T12:10:53.122Z,3.85
2023-05-05T12:13:25.837Z,3.60
2023-05-05T12:15:57.204Z,3.63
2023-05-05T12:18:25.760Z,3.30
2023-05-05T12:20:56.660Z,3.30
2023-05-05T12:23:30.406Z,3.47
2023-05-05T12:28:45.300Z,3.80
2023-05-05T12:31:13.917Z,4.25
2023-05-05T12:33:43.668Z,4.07
2023-05-05T12:36:12.229Z,3.55
2023-05-05T12:38:43.056Z,3.83
2023-05-05T12:41:18.947Z,4.22
2023-05-05T12:43:49.114Z,4.25
2023-05-05T12:46:18.911Z,4.05
2023-05-05T12:49:00.410Z,3.80
2023-05-05T12:51:41.482Z,3.70
2023-05-05T12:54:13.500Z,4.00
2023-05-05T12:56:44.346Z,3.97
2023-05-05T12:59:32.580Z,4.00
2023-05-05T13:02:05.960Z,4.20
2023-05-05T13:04:51.485Z,4.03
2023-05-05T13:07:23.258Z,3.55
2023-05-05T13:10:07.133Z,4.22
2023-05-05T13:12:38.890Z,4.40
2023-05-05T13:17:41.631Z,4.40
2023-05-05T13:20:16.683Z,4.25
2023-05-05T13:22:47.074Z,4.05
2023-05-05T13:25:19.167Z,3.85
2023-05-05T13:30:20.898Z,4.05
2023-05-05T13:32:58.839Z,3.75
2023-05-05T13:35:36.913Z,4.10
2023-05-05T13:38:08.832Z,3.97
2023-05-05T13:40:48.216Z,4.07
2023-05-05T13:43:21.608Z,4.25
2023-05-05T13:46:12.228Z,4.07
2023-05-05T13:48:49.400Z,4.10
2023-05-05T13:51:20.036Z,3.70
2023-05-05T13:53:53.977Z,4.30
2023-05-05T13:56:29.576Z,3.78
2023-05-05T13:58:58.942Z,4.05
2023-05-05T14:01:29.178Z,4.10
2023-05-05T14:03:59.456Z,4.22
2023-05-05T14:06:30.641Z,4.07
2023-05-05T14:09:01.693Z,4.22
2023-05-05T14:11:39.241Z,3.97
2023-05-05T14:14:09.538Z,3.65
2023-05-05T14:16:39.792Z,3.90
2023-05-05T14:19:08.444Z,3.97
2023-05-05T14:21:42.644Z,3.95
2023-05-05T14:24:12.216Z,3.88
2023-05-05T14:26:42.240Z,4.43
2023-05-05T14:29:13.295Z,4.73
2023-05-05T14:31:46.391Z,4.00
2023-05-05T14:34:17.473Z,4.00
2023-05-05T14:36:49.287Z,4.07
2023-05-05T14:41:52.361Z,3.90
2023-05-05T14:44:24.129Z,4.50
2023-05-05T14:46:58.175Z,4.32
2023-05-05T14:49:27.915Z,4.25
2023-05-05T14:52:02.380Z,4.30
2023-05-05T14:54:33.550Z,4.20
2023-05-05T14:57:06.904Z,4.20
2023-05-05T14:59:38.292Z,4.30
2023-05-05T15:02:09.372Z,4.10
2023-05-05T15:04:40.153Z,4.35
2023-05-05T15:07:11.441Z,4.15
2023-05-05T15:09:40.833Z,4.10
2023-05-05T15:12:11.958Z,4.10
2023-05-05T15:14:41.441Z,3.95
2023-05-05T15:17:10.335Z,4.57
2023-05-05T15:19:40.206Z,4.40
2023-05-05T15:22:08.366Z,4.18
2023-05-05T15:24:41.868Z,4.63
2023-05-05T15:27:12.659Z,4.32
2023-05-05T15:29:42.454Z,4.55
2023-05-05T15:32:14.878Z,4.60
2023-05-05T15:34:49.605Z,4.50
2023-05-05T15:37:20.588Z,4.25
2023-05-05T15:39:55.651Z,4.30
2023-05-05T15:42:28.364Z,4.07
2023-05-05T15:44:56.661Z,4.13
2023-05-05T15:47:26.832Z,4.40
2023-05-05T15:49:58.282Z,4.30
2023-05-05T15:52:28.898Z,4.18
2023-05-05T15:55:01.900Z,4.07
2023-05-05T15:57:39.298Z,4.40
2023-05-05T16:00:10.854Z,4.80
2023-05-05T16:02:42.269Z,4.15
2023-05-05T16:05:11.428Z,4.10
2023-05-05T16:07:41.121Z,4.13
2023-05-05T16:10:12.538Z,4.30
2023-05-05T16:12:43.601Z,4.60
2023-05-05T16:15:14.232Z,4.00
2023-05-05T16:17:46.541Z,4.30
2023-05-05T16:20:16.134Z,4.40
2023-05-05T16:22:46.272Z,4.10
2023-05-05T16:25:18.423Z,4.05
2023-05-05T16:27:49.830Z,4.47
2023-05-05T16:30:20.664Z,4.68
2023-05-05T16:32:52.311Z,4.20
2023-05-05T16:37:58.292Z,4.00
2023-05-05T16:40:30.028Z,4.38
2023-05-05T16:43:03.034Z,4.35
2023-05-05T16:45:42.397Z,4.40
2023-05-05T16:48:15.181Z,4.20
2023-05-05T16:50:47.997Z,3.90
2023-05-05T16:53:22.262Z,3.65
2023-05-05T16:55:52.474Z,4.90
2023-05-05T16:58:26.887Z,4.50
2023-05-05T17:00:57.561Z,4.60
2023-05-05T17:03:27.118Z,4.70
2023-05-05T17:05:59.539Z,4.43
2023-05-05T17:08:30.116Z,4.20
2023-05-05T17:11:06.728Z,3.90
2023-05-05T17:13:40.156Z,3.75
2023-05-05T17:16:11.526Z,3.78
2023-05-05T17:18:39.903Z,4.35
2023-05-05T17:21:12.053Z,4.20
2023-05-05T17:23:40.518Z,4.10
2023-05-05T17:26:09.114Z,4.10
2023-05-05T17:28:42.140Z,4.18
2023-05-05T17:31:11.488Z,4.03
2023-05-05T17:33:41.592Z,4.07
2023-05-05T17:36:11.642Z,4.15
2023-05-05T17:38:44.688Z,3.72
2023-05-05T17:41:15.206Z,4.00
2023-05-05T17:43:46.181Z,4.00
2023-05-05T17:46:16.275Z,4.15
2023-05-05T17:48:49.219Z,4.07
2023-05-05T17:51:19.268Z,4.03
2023-05-05T17:53:48.437Z,4.03
2023-05-05T17:56:20.999Z,4.15
2023-05-05T17:58:53.060Z,4.40
2023-05-05T18:01:27.913Z,4.30
2023-05-05T18:04:01.836Z,4.25
2023-05-05T18:06:32.545Z,4.20
2023-05-05T18:11:40.611Z,4.65
2023-05-05T18:14:15.395Z,4.72
2023-05-05T18:16:49.865Z,5.03
2023-05-05T18:19:22.139Z,5.22
2023-05-05T18:21:57.224Z,5.47
2023-05-05T18:24:31.285Z,4.95
2023-05-05T18:27:01.104Z,5.07
2023-05-05T18:29:35.166Z,5.10
2023-05-05T18:32:09.749Z,5.10
2023-05-05T18:34:38.612Z,4.90
2023-05-05T18:37:08.574Z,5.32
2023-05-05T18:39:43.805Z,5.55
2023-05-05T18:42:13.936Z,6.32
2023-05-05T18:44:46.255Z,6.50
2023-05-05T18:47:16.629Z,6.95
2023-05-05T18:49:45.468Z,6.40
2023-05-05T18:52:17.942Z,8.70
2023-05-05T18:54:50.934Z,8.25
2023-05-05T18:57:20.931Z,9.00
2023-05-05T18:59:53.947Z,8.35
2023-05-05T19:02:25.213Z,7.30
2023-05-05T19:04:56.715Z,7.82
2023-05-05T19:07:35.434Z,7.88
2023-05-05T19:10:11.554Z,7.90
2023-05-05T19:12:43.364Z,7.45
2023-05-05T19:15:15.972Z,7.15
2023-05-05T19:17:44.281Z,7.70
2023-05-05T19:20:15.787Z,8.23
2023-05-05T19:22:46.062Z,8.23
2023-05-05T19:25:16.681Z,7.95
2023-05-05T19:27:45.681Z,8.52
2023-05-05T19:30:16.673Z,8.23
2023-05-05T19:32:49.547Z,8.60
2023-05-05T19:35:23.441Z,9.13
2023-05-05T19:38:02.174Z,8.35
2023-05-05T19:40:33.177Z,8.65
2023-05-05T19:43:04.588Z,8.17
2023-05-05T19:45:38.455Z,8.13
2023-05-05T19:48:09.347Z,7.63
2023-05-05T19:50:39.864Z,7.65
2023-05-05T19:53:08.039Z,7.70
2023-05-05T19:55:36.245Z,8.25
2023-05-05T19:58:10.216Z,8.52
2023-05-05T20:00:43.110Z,8.60
2023-05-05T20:03:13.198Z,8.60
2023-05-05T20:05:43.461Z,8.30
2023-05-05T20:08:14.807Z,8.30
2023-05-05T20:10:45.910Z,8.70
2023-05-05T20:13:14.195Z,8.60
2023-05-05T20:15:44.432Z,8.10
2023-05-05T20:18:16.413Z,8.30
2023-05-05T20:20:46.604Z,8.38
2023-05-05T20:23:17.039Z,8.25
2023-05-05T20:25:48.050Z,7.93
2023-05-05T20:28:20.400Z,8.13
2023-05-05T20:30:53.055Z,8.38
2023-05-05T20:33:21.654Z,8.32
2023-05-05T20:35:49.983Z,8.35
2023-05-05T20:38:20.842Z,8.68
2023-05-05T20:40:49.260Z,9.15
2023-05-05T20:43:19.234Z,9.52
2023-05-05T20:45:57.132Z,9.32
2023-05-05T20:48:30.631Z,9.80
2023-05-05T20:50:59.613Z,9.95
2023-05-05T20:53:29.906Z,10.85
2023-05-05T20:55:58.715Z,11.63
2023-05-05T20:58:27.569Z,12.02
2023-05-05T21:00:59.403Z,11.30
2023-05-05T21:03:29.180Z,11.70
2023-05-05T21:06:03.455Z,10.77
2023-05-05T21:08:39.503Z,10.90
2023-05-05T21:11:11.907Z,11.38
2023-05-05T21:13:45.878Z,11.35
2023-05-05T21:16:20.752Z,11.85
2023-05-05T21:18:49.072Z,12.80
2023-05-05T21:21:19.342Z,12.20
2023-05-05T21:23:50.782Z,12.30
2023-05-05T21:26:21.290Z,12.50
2023-05-05T21:28:53.726Z,11.68
2023-05-05T21:31:23.848Z,12.20
2023-05-05T21:33:54.383Z,12.07
2023-05-05T21:36:23.161Z,12.27
2023-05-05T21:38:55.680Z,11.40
2023-05-05T21:41:27.090Z,11.35
2023-05-05T21:44:00.852Z,11.80
2023-05-05T21:46:32.721Z,11.13
2023-05-05T21:51:48.952Z,11.85
2023-05-05T21:54:20.484Z,12.18
2023-05-05T21:56:51.669Z,12.88
2023-05-05T21:59:21.466Z,11.98
2023-05-05T22:01:51.873Z,11.88
2023-05-05T22:04:22.480Z,11.68
2023-05-05T22:06:56.626Z,11.82
2023-05-05T22:09:26.692Z,11.05
2023-05-05T22:11:58.181Z,10.40
2023-05-05T22:14:28.095Z,10.57
2023-05-05T22:16:59.846Z,10.55
2023-05-05T22:19:34.456Z,10.32
2023-05-05T22:22:05.998Z,10.98
2023-05-05T22:24:39.991Z,10.57
2023-05-05T22:27:11.332Z,11.02
2023-05-05T22:29:42.636Z,10.80
2023-05-05T22:32:15.988Z,10.77
2023-05-05T22:34:45.839Z,10.85
2023-05-05T22:37:19.861Z,10.82
2023-05-05T22:39:50.407Z,10.50
2023-05-05T22:42:22.011Z,10.45
2023-05-05T22:44:50.194Z,9.88
2023-05-05T22:47:20.538Z,10.38
2023-05-05T22:49:49.624Z,10.45
2023-05-05T22:52:17.967Z,10.77
2023-05-05T22:54:49.750Z,10.68
2023-05-05T22:57:19.987Z,10.60
2023-05-05T22:59:52.867Z,11.35
2023-05-05T23:02:26.818Z,10.57
2023-05-05T23:05:02.289Z,10.63
2023-05-05T23:07:33.215Z,10.77
2023-05-05T23:10:03.311Z,11.40
2023-05-05T23:12:33.666Z,12.05
2023-05-05T23:15:08.236Z,12.50
2023-05-05T23:17:45.469Z,13.13
2023-05-05T23:20:15.266Z,13.30
2023-05-05T23:22:45.149Z,13.50
2023-05-05T23:25:16.171Z,13.63
2023-05-05T23:27:47.761Z,12.53
2023-05-05T23:30:18.460Z,12.90
2023-05-05T23:32:54.394Z,12.68
2023-05-05T23:35:24.818Z,12.65
2023-05-05T23:37:57.770Z,12.30
2023-05-05T23:40:29.431Z,12.25
2023-05-05T23:42:58.992Z,11.75
2023-05-05T23:45:27.888Z,12.38
2023-05-05T23:47:58.186Z,12.45
2023-05-05T23:50:27.807Z,12.07
2023-05-05T23:53:01.487Z,13.32
2023-05-05T23:55:31.335Z,12.65
2023-05-05T23:58:07.805Z,12.60
